sensor_id;sensor_type;location;lat;lon;timestamp;P1;durP1;ratioP1;P2;durP2;ratioP2
8861;SDS011;4799;50.996;4.754;2023-06-22T00:01:29;5.50;;;5.00;;
8861;SDS011;4799;50.996;4.754;2023-06-22T00:03:54;5.30;;;4.70;;
8861;SDS011;4799;50.996;4.754;2023-06-22T00:06:20;6.03;;;5.43;;
8861;SDS011;4799;50.996;4.754;2023-06-22T00:08:46;6.07;;;5.57;;
8861;SDS011;4799;50.996;4.754;2023-06-22T00:11:12;5.53;;;5.03;;
8861;SDS011;4799;50.996;4.754;2023-06-22T00:13:38;5.30;;;4.90;;
8861;SDS011;4799;50.996;4.754;2023-06-22T00:16:04;5.00;;;4.60;;
8861;SDS011;4799;50.996;4.754;2023-06-22T00:18:30;5.03;;;4.60;;
8861;SDS011;4799;50.996;4.754;2023-06-22T00:20:56;6.07;;;5.47;;
8861;SDS011;4799;50.996;4.754;2023-06-22T00:23:23;6.10;;;5.50;;
8861;SDS011;4799;50.996;4.754;2023-06-22T00:25:49;6.30;;;5.70;;
8861;SDS011;4799;50.996;4.754;2023-06-22T00:28:15;6.77;;;6.10;;
8861;SDS011;4799;50.996;4.754;2023-06-22T00:30:41;6.30;;;5.70;;
8861;SDS011;4799;50.996;4.754;2023-06-22T00:33:06;7.07;;;6.07;;
8861;SDS011;4799;50.996;4.754;2023-06-22T00:35:33;5.90;;;5.40;;
8861;SDS011;4799;50.996;4.754;2023-06-22T00:37:59;5.33;;;4.90;;
8861;SDS011;4799;50.996;4.754;2023-06-22T00:40:29;5.80;;;5.30;;
8861;SDS011;4799;50.996;4.754;2023-06-22T00:42:56;6.70;;;5.50;;
8861;SDS011;4799;50.996;4.754;2023-06-22T00:45:22;6.20;;;5.70;;
8861;SDS011;4799;50.996;4.754;2023-06-22T00:47:52;6.50;;;5.60;;
8861;SDS011;4799;50.996;4.754;2023-06-22T00:50:20;6.40;;;5.90;;
8861;SDS011;4799;50.996;4.754;2023-06-22T00:52:51;6.37;;;5.73;;
8861;SDS011;4799;50.996;4.754;2023-06-22T00:55:19;6.90;;;6.30;;
8861;SDS011;4799;50.996;4.754;2023-06-22T00:57:46;6.30;;;5.70;;
8861;SDS011;4799;50.996;4.754;2023-06-22T01:00:13;6.67;;;6.10;;
8861;SDS011;4799;50.996;4.754;2023-06-22T01:02:44;7.27;;;6.60;;
8861;SDS011;4799;50.996;4.754;2023-06-22T01:05:14;6.50;;;6.00;;
8861;SDS011;4799;50.996;4.754;2023-06-22T01:10:36;7.10;;;6.40;;
8861;SDS011;4799;50.996;4.754;2023-06-22T01:13:08;6.73;;;6.17;;
8861;SDS011;4799;50.996;4.754;2023-06-22T01:15:54;7.20;;;6.50;;
8861;SDS011;4799;50.996;4.754;2023-06-22T01:18:25;6.70;;;6.10;;
8861;SDS011;4799;50.996;4.754;2023-06-22T01:20:54;6.13;;;5.53;;
8861;SDS011;4799;50.996;4.754;2023-06-22T01:31:10;7.83;;;7.03;;
8861;SDS011;4799;50.996;4.754;2023-06-22T01:33:39;8.00;;;7.33;;
8861;SDS011;4799;50.996;4.754;2023-06-22T01:36:07;7.70;;;7.00;;
8861;SDS011;4799;50.996;4.754;2023-06-22T01:38:34;6.80;;;6.20;;
8861;SDS011;4799;50.996;4.754;2023-06-22T01:41:02;7.40;;;6.73;;
8861;SDS011;4799;50.996;4.754;2023-06-22T01:43:29;7.97;;;7.27;;
8861;SDS011;4799;50.996;4.754;2023-06-22T01:45:55;7.50;;;6.80;;
8861;SDS011;4799;50.996;4.754;2023-06-22T01:48:22;7.27;;;6.57;;
8861;SDS011;4799;50.996;4.754;2023-06-22T01:50:49;7.43;;;6.73;;
8861;SDS011;4799;50.996;4.754;2023-06-22T01:53:14;7.30;;;6.57;;
8861;SDS011;4799;50.996;4.754;2023-06-22T01:55:40;7.27;;;6.57;;
8861;SDS011;4799;50.996;4.754;2023-06-22T01:58:06;7.60;;;6.43;;
8861;SDS011;4799;50.996;4.754;2023-06-22T02:00:32;7.17;;;6.47;;
8861;SDS011;4799;50.996;4.754;2023-06-22T02:03:10;8.33;;;7.53;;
8861;SDS011;4799;50.996;4.754;2023-06-22T02:05:46;7.40;;;6.80;;
8861;SDS011;4799;50.996;4.754;2023-06-22T02:08:22;7.87;;;7.13;;
8861;SDS011;4799;50.996;4.754;2023-06-22T02:10:50;8.50;;;7.70;;
8861;SDS011;4799;50.996;4.754;2023-06-22T02:13:18;7.90;;;7.27;;
8861;SDS011;4799;50.996;4.754;2023-06-22T02:15:44;8.57;;;7.80;;
8861;SDS011;4799;50.996;4.754;2023-06-22T02:18:10;8.53;;;7.63;;
8861;SDS011;4799;50.996;4.754;2023-06-22T02:20:37;9.00;;;8.20;;
8861;SDS011;4799;50.996;4.754;2023-06-22T02:23:05;7.97;;;7.27;;
8861;SDS011;4799;50.996;4.754;2023-06-22T02:25:32;8.23;;;7.43;;
8861;SDS011;4799;50.996;4.754;2023-06-22T02:27:58;8.50;;;7.70;;
8861;SDS011;4799;50.996;4.754;2023-06-22T02:30:23;9.03;;;8.30;;
8861;SDS011;4799;50.996;4.754;2023-06-22T02:32:49;8.70;;;8.00;;
8861;SDS011;4799;50.996;4.754;2023-06-22T02:35:23;9.47;;;8.57;;
8861;SDS011;4799;50.996;4.754;2023-06-22T02:37:57;8.77;;;7.97;;
8861;SDS011;4799;50.996;4.754;2023-06-22T02:40:24;9.03;;;8.07;;
8861;SDS011;4799;50.996;4.754;2023-06-22T02:42:50;9.67;;;8.73;;
8861;SDS011;4799;50.996;4.754;2023-06-22T02:45:16;8.77;;;7.97;;
8861;SDS011;4799;50.996;4.754;2023-06-22T02:47:42;9.00;;;8.20;;
8861;SDS011;4799;50.996;4.754;2023-06-22T02:50:07;9.50;;;8.50;;
8861;SDS011;4799;50.996;4.754;2023-06-22T02:52:33;9.27;;;8.40;;
8861;SDS011;4799;50.996;4.754;2023-06-22T02:54:59;9.00;;;8.20;;
8861;SDS011;4799;50.996;4.754;2023-06-22T02:57:25;9.20;;;8.30;;
8861;SDS011;4799;50.996;4.754;2023-06-22T02:59:51;8.37;;;7.60;;
8861;SDS011;4799;50.996;4.754;2023-06-22T03:02:16;8.97;;;8.20;;
8861;SDS011;4799;50.996;4.754;2023-06-22T03:04:42;9.40;;;8.60;;
8861;SDS011;4799;50.996;4.754;2023-06-22T03:07:09;9.60;;;8.67;;
8861;SDS011;4799;50.996;4.754;2023-06-22T03:09:35;9.53;;;8.73;;
8861;SDS011;4799;50.996;4.754;2023-06-22T03:12:00;9.90;;;9.00;;
8861;SDS011;4799;50.996;4.754;2023-06-22T03:14:27;9.93;;;8.93;;
8861;SDS011;4799;50.996;4.754;2023-06-22T03:16:52;9.47;;;8.57;;
8861;SDS011;4799;50.996;4.754;2023-06-22T03:19:18;10.07;;;9.20;;
8861;SDS011;4799;50.996;4.754;2023-06-22T03:21:46;10.07;;;9.03;;
8861;SDS011;4799;50.996;4.754;2023-06-22T03:24:12;10.67;;;9.67;;
8861;SDS011;4799;50.996;4.754;2023-06-22T03:26:37;10.73;;;9.83;;
8861;SDS011;4799;50.996;4.754;2023-06-22T03:29:03;10.77;;;9.77;;
8861;SDS011;4799;50.996;4.754;2023-06-22T03:31:29;10.07;;;9.07;;
8861;SDS011;4799;50.996;4.754;2023-06-22T03:33:55;10.10;;;9.20;;
8861;SDS011;4799;50.996;4.754;2023-06-22T03:36:21;10.33;;;9.33;;
8861;SDS011;4799;50.996;4.754;2023-06-22T03:38:48;10.63;;;9.73;;
8861;SDS011;4799;50.996;4.754;2023-06-22T03:41:15;10.33;;;9.37;;
8861;SDS011;4799;50.996;4.754;2023-06-22T03:43:41;10.50;;;9.40;;
8861;SDS011;4799;50.996;4.754;2023-06-22T03:46:07;11.40;;;10.23;;
8861;SDS011;4799;50.996;4.754;2023-06-22T03:48:33;8.63;;;7.93;;
8861;SDS011;4799;50.996;4.754;2023-06-22T03:50:59;9.87;;;9.07;;
8861;SDS011;4799;50.996;4.754;2023-06-22T03:53:25;10.00;;;9.10;;
8861;SDS011;4799;50.996;4.754;2023-06-22T03:55:51;8.83;;;8.13;;
8861;SDS011;4799;50.996;4.754;2023-06-22T03:58:18;10.80;;;9.80;;
8861;SDS011;4799;50.996;4.754;2023-06-22T04:00:47;9.77;;;8.97;;
8861;SDS011;4799;50.996;4.754;2023-06-22T04:03:17;11.30;;;10.13;;
8861;SDS011;4799;50.996;4.754;2023-06-22T04:05:46;11.07;;;10.10;;
8861;SDS011;4799;50.996;4.754;2023-06-22T04:08:13;10.97;;;9.90;;
8861;SDS011;4799;50.996;4.754;2023-06-22T04:10:39;12.07;;;10.83;;
8861;SDS011;4799;50.996;4.754;2023-06-22T04:13:05;10.27;;;9.43;;
8861;SDS011;4799;50.996;4.754;2023-06-22T04:15:31;10.97;;;10.07;;
8861;SDS011;4799;50.996;4.754;2023-06-22T04:17:57;11.93;;;10.73;;
8861;SDS011;4799;50.996;4.754;2023-06-22T04:20:23;10.87;;;9.90;;
8861;SDS011;4799;50.996;4.754;2023-06-22T04:22:52;10.57;;;9.53;;
8861;SDS011;4799;50.996;4.754;2023-06-22T04:25:18;11.03;;;9.90;;
8861;SDS011;4799;50.996;4.754;2023-06-22T04:27:45;10.40;;;9.50;;
8861;SDS011;4799;50.996;4.754;2023-06-22T04:30:11;10.90;;;9.90;;
8861;SDS011;4799;50.996;4.754;2023-06-22T04:32:41;10.83;;;9.83;;
8861;SDS011;4799;50.996;4.754;2023-06-22T04:35:07;10.90;;;10.00;;
8861;SDS011;4799;50.996;4.754;2023-06-22T04:37:33;10.83;;;9.83;;
8861;SDS011;4799;50.996;4.754;2023-06-22T04:39:59;10.90;;;9.90;;
8861;SDS011;4799;50.996;4.754;2023-06-22T04:42:28;10.63;;;9.53;;
8861;SDS011;4799;50.996;4.754;2023-06-22T04:44:54;10.93;;;10.03;;
8861;SDS011;4799;50.996;4.754;2023-06-22T04:47:19;10.60;;;9.70;;
8861;SDS011;4799;50.996;4.754;2023-06-22T04:49:45;11.13;;;10.07;;
8861;SDS011;4799;50.996;4.754;2023-06-22T04:52:11;10.63;;;9.70;;
8861;SDS011;4799;50.996;4.754;2023-06-22T04:54:39;11.17;;;10.03;;
8861;SDS011;4799;50.996;4.754;2023-06-22T04:57:13;11.50;;;10.43;;
8861;SDS011;4799;50.996;4.754;2023-06-22T04:59:39;11.03;;;9.93;;
8861;SDS011;4799;50.996;4.754;2023-06-22T05:02:06;10.17;;;9.27;;
8861;SDS011;4799;50.996;4.754;2023-06-22T05:04:33;11.30;;;10.17;;
8861;SDS011;4799;50.996;4.754;2023-06-22T05:07:00;12.07;;;10.97;;
8861;SDS011;4799;50.996;4.754;2023-06-22T05:09:27;13.23;;;11.93;;
8861;SDS011;4799;50.996;4.754;2023-06-22T05:11:54;11.30;;;10.40;;
8861;SDS011;4799;50.996;4.754;2023-06-22T05:14:21;11.67;;;10.67;;
8861;SDS011;4799;50.996;4.754;2023-06-22T05:16:47;12.30;;;11.13;;
8861;SDS011;4799;50.996;4.754;2023-06-22T05:19:14;11.87;;;10.80;;
8861;SDS011;4799;50.996;4.754;2023-06-22T05:21:39;12.67;;;11.50;;
8861;SDS011;4799;50.996;4.754;2023-06-22T05:24:05;11.47;;;10.53;;
8861;SDS011;4799;50.996;4.754;2023-06-22T05:26:32;12.70;;;11.70;;
8861;SDS011;4799;50.996;4.754;2023-06-22T05:28:59;12.77;;;11.60;;
8861;SDS011;4799;50.996;4.754;2023-06-22T05:31:26;13.87;;;12.67;;
8861;SDS011;4799;50.996;4.754;2023-06-22T05:33:53;13.17;;;11.80;;
8861;SDS011;4799;50.996;4.754;2023-06-22T05:36:19;12.53;;;11.33;;
8861;SDS011;4799;50.996;4.754;2023-06-22T05:38:46;11.13;;;10.13;;
8861;SDS011;4799;50.996;4.754;2023-06-22T05:41:12;12.27;;;11.07;;
8861;SDS011;4799;50.996;4.754;2023-06-22T05:43:39;11.60;;;10.70;;
8861;SDS011;4799;50.996;4.754;2023-06-22T05:46:05;11.33;;;10.23;;
8861;SDS011;4799;50.996;4.754;2023-06-22T05:48:31;12.60;;;11.40;;
8861;SDS011;4799;50.996;4.754;2023-06-22T05:50:57;12.60;;;11.57;;
8861;SDS011;4799;50.996;4.754;2023-06-22T05:53:24;12.10;;;10.80;;
8861;SDS011;4799;50.996;4.754;2023-06-22T05:55:49;12.40;;;11.20;;
8861;SDS011;4799;50.996;4.754;2023-06-22T05:58:15;11.90;;;10.83;;
8861;SDS011;4799;50.996;4.754;2023-06-22T06:00:41;11.33;;;10.33;;
8861;SDS011;4799;50.996;4.754;2023-06-22T06:03:08;12.37;;;11.23;;
8861;SDS011;4799;50.996;4.754;2023-06-22T06:05:35;13.07;;;11.93;;
8861;SDS011;4799;50.996;4.754;2023-06-22T06:08:02;13.13;;;11.97;;
8861;SDS011;4799;50.996;4.754;2023-06-22T06:10:32;15.53;;;14.13;;
8861;SDS011;4799;50.996;4.754;2023-06-22T06:12:58;13.13;;;12.13;;
8861;SDS011;4799;50.996;4.754;2023-06-22T06:15:27;13.10;;;12.00;;
8861;SDS011;4799;50.996;4.754;2023-06-22T06:17:53;13.57;;;12.37;;
8861;SDS011;4799;50.996;4.754;2023-06-22T06:20:19;14.13;;;12.83;;
8861;SDS011;4799;50.996;4.754;2023-06-22T06:22:47;14.00;;;12.60;;
8861;SDS011;4799;50.996;4.754;2023-06-22T06:25:13;13.27;;;12.17;;
8861;SDS011;4799;50.996;4.754;2023-06-22T06:27:43;14.90;;;13.47;;
8861;SDS011;4799;50.996;4.754;2023-06-22T06:30:10;14.33;;;13.03;;
8861;SDS011;4799;50.996;4.754;2023-06-22T06:32:37;14.37;;;13.07;;
8861;SDS011;4799;50.996;4.754;2023-06-22T06:35:04;14.60;;;13.20;;
8861;SDS011;4799;50.996;4.754;2023-06-22T06:37:31;14.33;;;13.03;;
8861;SDS011;4799;50.996;4.754;2023-06-22T06:39:58;14.13;;;12.80;;
8861;SDS011;4799;50.996;4.754;2023-06-22T06:42:23;14.53;;;13.03;;
8861;SDS011;4799;50.996;4.754;2023-06-22T06:44:49;14.90;;;13.60;;
8861;SDS011;4799;50.996;4.754;2023-06-22T06:47:15;16.33;;;14.83;;
8861;SDS011;4799;50.996;4.754;2023-06-22T06:49:42;15.83;;;14.50;;
8861;SDS011;4799;50.996;4.754;2023-06-22T06:52:08;16.03;;;14.53;;
8861;SDS011;4799;50.996;4.754;2023-06-22T06:54:33;15.53;;;14.20;;
8861;SDS011;4799;50.996;4.754;2023-06-22T06:56:59;15.93;;;14.53;;
8861;SDS011;4799;50.996;4.754;2023-06-22T06:59:25;16.20;;;14.70;;
8861;SDS011;4799;50.996;4.754;2023-06-22T07:01:50;16.93;;;15.53;;
8861;SDS011;4799;50.996;4.754;2023-06-22T07:04:16;16.43;;;14.93;;
8861;SDS011;4799;50.996;4.754;2023-06-22T07:06:42;16.37;;;14.87;;
8861;SDS011;4799;50.996;4.754;2023-06-22T07:09:08;16.27;;;14.63;;
8861;SDS011;4799;50.996;4.754;2023-06-22T07:11:33;16.17;;;14.67;;
8861;SDS011;4799;50.996;4.754;2023-06-22T07:14:00;16.13;;;14.63;;
8861;SDS011;4799;50.996;4.754;2023-06-22T07:16:27;16.17;;;14.67;;
8861;SDS011;4799;50.996;4.754;2023-06-22T07:18:53;15.57;;;14.17;;
8861;SDS011;4799;50.996;4.754;2023-06-22T07:21:19;16.47;;;14.97;;
8861;SDS011;4799;50.996;4.754;2023-06-22T07:23:45;15.40;;;14.10;;
8861;SDS011;4799;50.996;4.754;2023-06-22T07:26:10;15.03;;;13.63;;
8861;SDS011;4799;50.996;4.754;2023-06-22T07:28:37;14.20;;;13.03;;
8861;SDS011;4799;50.996;4.754;2023-06-22T07:31:05;14.53;;;13.23;;
8861;SDS011;4799;50.996;4.754;2023-06-22T07:33:31;14.33;;;13.13;;
8861;SDS011;4799;50.996;4.754;2023-06-22T07:35:57;13.63;;;12.53;;
8861;SDS011;4799;50.996;4.754;2023-06-22T07:38:23;14.07;;;12.80;;
8861;SDS011;4799;50.996;4.754;2023-06-22T07:40:48;13.30;;;12.10;;
8861;SDS011;4799;50.996;4.754;2023-06-22T07:43:15;12.40;;;11.33;;
8861;SDS011;4799;50.996;4.754;2023-06-22T07:51:38;11.73;;;10.63;;
8861;SDS011;4799;50.996;4.754;2023-06-22T07:54:04;11.17;;;10.17;;
8861;SDS011;4799;50.996;4.754;2023-06-22T07:56:30;11.27;;;10.03;;
8861;SDS011;4799;50.996;4.754;2023-06-22T07:58:55;10.20;;;9.30;;
8861;SDS011;4799;50.996;4.754;2023-06-22T08:01:23;9.63;;;8.70;;
8861;SDS011;4799;50.996;4.754;2023-06-22T08:03:49;9.07;;;8.27;;
8861;SDS011;4799;50.996;4.754;2023-06-22T08:06:15;8.83;;;8.03;;
8861;SDS011;4799;50.996;4.754;2023-06-22T08:08:41;8.50;;;7.70;;
8861;SDS011;4799;50.996;4.754;2023-06-22T08:11:07;8.83;;;8.03;;
8861;SDS011;4799;50.996;4.754;2023-06-22T08:13:33;7.93;;;6.97;;
8861;SDS011;4799;50.996;4.754;2023-06-22T08:15:59;7.70;;;7.00;;
8861;SDS011;4799;50.996;4.754;2023-06-22T08:18:25;8.77;;;7.87;;
8861;SDS011;4799;50.996;4.754;2023-06-22T08:20:51;7.63;;;7.03;;
8861;SDS011;4799;50.996;4.754;2023-06-22T08:23:16;7.90;;;7.20;;
8861;SDS011;4799;50.996;4.754;2023-06-22T08:25:42;7.20;;;6.60;;
8861;SDS011;4799;50.996;4.754;2023-06-22T08:28:08;8.83;;;6.63;;
8861;SDS011;4799;50.996;4.754;2023-06-22T08:30:34;7.33;;;6.63;;
8861;SDS011;4799;50.996;4.754;2023-06-22T08:33:00;6.57;;;6.03;;
8861;SDS011;4799;50.996;4.754;2023-06-22T08:35:25;7.20;;;6.57;;
8861;SDS011;4799;50.996;4.754;2023-06-22T08:37:51;6.43;;;5.83;;
8861;SDS011;4799;50.996;4.754;2023-06-22T08:40:19;6.97;;;6.37;;
8861;SDS011;4799;50.996;4.754;2023-06-22T08:42:46;6.73;;;6.13;;
8861;SDS011;4799;50.996;4.754;2023-06-22T08:45:13;6.27;;;5.77;;
8861;SDS011;4799;50.996;4.754;2023-06-22T08:47:40;6.17;;;5.63;;
8861;SDS011;4799;50.996;4.754;2023-06-22T08:50:07;6.27;;;5.67;;
8861;SDS011;4799;50.996;4.754;2023-06-22T08:52:36;7.13;;;5.30;;
8861;SDS011;4799;50.996;4.754;2023-06-22T08:55:03;5.77;;;5.27;;
8861;SDS011;4799;50.996;4.754;2023-06-22T08:57:29;6.43;;;5.83;;
8861;SDS011;4799;50.996;4.754;2023-06-22T08:59:58;5.70;;;5.10;;
8861;SDS011;4799;50.996;4.754;2023-06-22T09:02:27;6.43;;;4.90;;
8861;SDS011;4799;50.996;4.754;2023-06-22T09:04:59;5.30;;;4.80;;
8861;SDS011;4799;50.996;4.754;2023-06-22T09:07:25;6.00;;;5.40;;
8861;SDS011;4799;50.996;4.754;2023-06-22T09:09:51;5.67;;;5.00;;
8861;SDS011;4799;50.996;4.754;2023-06-22T09:12:17;5.93;;;5.43;;
8861;SDS011;4799;50.996;4.754;2023-06-22T09:14:45;6.13;;;5.53;;
8861;SDS011;4799;50.996;4.754;2023-06-22T09:17:12;6.73;;;5.83;;
8861;SDS011;4799;50.996;4.754;2023-06-22T09:19:38;6.57;;;5.87;;
8861;SDS011;4799;50.996;4.754;2023-06-22T09:22:04;5.97;;;5.27;;
8861;SDS011;4799;50.996;4.754;2023-06-22T09:24:31;5.60;;;5.10;;
8861;SDS011;4799;50.996;4.754;2023-06-22T09:26:57;5.90;;;5.30;;
8861;SDS011;4799;50.996;4.754;2023-06-22T09:29:23;6.33;;;4.97;;
8861;SDS011;4799;50.996;4.754;2023-06-22T09:31:49;5.80;;;5.30;;
8861;SDS011;4799;50.996;4.754;2023-06-22T09:34:15;6.03;;;5.43;;
8861;SDS011;4799;50.996;4.754;2023-06-22T09:36:45;7.03;;;5.73;;
8861;SDS011;4799;50.996;4.754;2023-06-22T09:39:11;7.40;;;5.70;;
8861;SDS011;4799;50.996;4.754;2023-06-22T09:41:37;8.27;;;7.47;;
8861;SDS011;4799;50.996;4.754;2023-06-22T09:44:02;9.73;;;8.43;;
8861;SDS011;4799;50.996;4.754;2023-06-22T09:46:28;8.67;;;7.87;;
8861;SDS011;4799;50.996;4.754;2023-06-22T09:48:54;10.37;;;8.77;;
8861;SDS011;4799;50.996;4.754;2023-06-22T09:51:20;10.00;;;9.03;;
8861;SDS011;4799;50.996;4.754;2023-06-22T09:53:47;11.17;;;10.17;;
8861;SDS011;4799;50.996;4.754;2023-06-22T09:56:13;11.77;;;10.67;;
8861;SDS011;4799;50.996;4.754;2023-06-22T09:58:43;12.20;;;11.03;;
8861;SDS011;4799;50.996;4.754;2023-06-22T10:01:10;14.10;;;12.70;;
8861;SDS011;4799;50.996;4.754;2023-06-22T10:03:36;13.80;;;12.57;;
8861;SDS011;4799;50.996;4.754;2023-06-22T10:06:02;15.93;;;14.07;;
8861;SDS011;4799;50.996;4.754;2023-06-22T10:08:28;59.00;;;19.07;;
8861;SDS011;4799;50.996;4.754;2023-06-22T10:10:54;19.10;;;17.07;;
8861;SDS011;4799;50.996;4.754;2023-06-22T10:13:20;123.80;;;24.73;;
8861;SDS011;4799;50.996;4.754;2023-06-22T10:15:45;171.07;;;32.13;;
8861;SDS011;4799;50.996;4.754;2023-06-22T10:18:16;109.27;;;32.53;;
8861;SDS011;4799;50.996;4.754;2023-06-22T10:20:47;40.77;;;29.83;;
8861;SDS011;4799;50.996;4.754;2023-06-22T10:23:15;43.23;;;31.70;;
8861;SDS011;4799;50.996;4.754;2023-06-22T10:25:41;50.67;;;32.80;;
8861;SDS011;4799;50.996;4.754;2023-06-22T10:28:06;55.43;;;39.50;;
8861;SDS011;4799;50.996;4.754;2023-06-22T10:30:32;54.17;;;39.20;;
8861;SDS011;4799;50.996;4.754;2023-06-22T10:32:58;61.20;;;40.77;;
8861;SDS011;4799;50.996;4.754;2023-06-22T10:35:23;43.60;;;33.90;;
8861;SDS011;4799;50.996;4.754;2023-06-22T10:37:49;47.83;;;38.07;;
8861;SDS011;4799;50.996;4.754;2023-06-22T10:40:16;52.63;;;38.37;;
8861;SDS011;4799;50.996;4.754;2023-06-22T10:42:43;64.50;;;41.63;;
8861;SDS011;4799;50.996;4.754;2023-06-22T10:45:10;53.97;;;39.13;;
8861;SDS011;4799;50.996;4.754;2023-06-22T10:47:36;62.17;;;37.37;;
8861;SDS011;4799;50.996;4.754;2023-06-22T10:50:02;67.37;;;39.87;;
8861;SDS011;4799;50.996;4.754;2023-06-22T10:52:28;65.50;;;40.30;;
8861;SDS011;4799;50.996;4.754;2023-06-22T10:54:54;51.77;;;38.47;;
8861;SDS011;4799;50.996;4.754;2023-06-22T10:57:19;53.20;;;40.37;;
8861;SDS011;4799;50.996;4.754;2023-06-22T10:59:46;52.70;;;39.27;;
8861;SDS011;4799;50.996;4.754;2023-06-22T11:02:12;55.77;;;39.57;;
8861;SDS011;4799;50.996;4.754;2023-06-22T11:04:38;52.43;;;39.53;;
8861;SDS011;4799;50.996;4.754;2023-06-22T11:07:03;54.73;;;41.60;;
8861;SDS011;4799;50.996;4.754;2023-06-22T11:09:29;70.83;;;49.80;;
8861;SDS011;4799;50.996;4.754;2023-06-22T11:11:55;70.80;;;50.43;;
8861;SDS011;4799;50.996;4.754;2023-06-22T11:14:21;63.60;;;47.87;;
8861;SDS011;4799;50.996;4.754;2023-06-22T11:16:47;60.27;;;46.97;;
8861;SDS011;4799;50.996;4.754;2023-06-22T11:19:13;75.47;;;51.80;;
8861;SDS011;4799;50.996;4.754;2023-06-22T11:21:39;70.67;;;51.87;;
8861;SDS011;4799;50.996;4.754;2023-06-22T11:24:07;85.80;;;58.70;;
8861;SDS011;4799;50.996;4.754;2023-06-22T11:26:33;75.20;;;59.20;;
8861;SDS011;4799;50.996;4.754;2023-06-22T11:29:00;92.27;;;67.93;;
8861;SDS011;4799;50.996;4.754;2023-06-22T11:31:26;80.03;;;63.10;;
8861;SDS011;4799;50.996;4.754;2023-06-22T11:33:52;89.20;;;66.60;;
8861;SDS011;4799;50.996;4.754;2023-06-22T11:36:18;84.27;;;63.17;;
8861;SDS011;4799;50.996;4.754;2023-06-22T11:38:44;84.83;;;63.23;;
8861;SDS011;4799;50.996;4.754;2023-06-22T11:41:09;89.33;;;66.53;;
8861;SDS011;4799;50.996;4.754;2023-06-22T11:43:36;89.67;;;65.53;;
8861;SDS011;4799;50.996;4.754;2023-06-22T11:46:02;74.03;;;61.03;;
8861;SDS011;4799;50.996;4.754;2023-06-22T11:48:29;81.77;;;62.40;;
8861;SDS011;4799;50.996;4.754;2023-06-22T11:50:54;82.83;;;63.20;;
8861;SDS011;4799;50.996;4.754;2023-06-22T11:53:21;74.77;;;58.80;;
8861;SDS011;4799;50.996;4.754;2023-06-22T11:55:47;82.20;;;63.20;;
8861;SDS011;4799;50.996;4.754;2023-06-22T11:58:14;77.20;;;61.70;;
8861;SDS011;4799;50.996;4.754;2023-06-22T12:00:39;74.60;;;60.40;;
8861;SDS011;4799;50.996;4.754;2023-06-22T12:03:06;71.73;;;60.00;;
8861;SDS011;4799;50.996;4.754;2023-06-22T12:05:32;81.77;;;60.93;;
8861;SDS011;4799;50.996;4.754;2023-06-22T12:07:58;80.90;;;61.17;;
8861;SDS011;4799;50.996;4.754;2023-06-22T12:10:25;76.83;;;60.00;;
8861;SDS011;4799;50.996;4.754;2023-06-22T12:12:53;84.83;;;63.60;;
8861;SDS011;4799;50.996;4.754;2023-06-22T12:15:19;78.03;;;59.63;;
8861;SDS011;4799;50.996;4.754;2023-06-22T12:17:45;79.03;;;62.73;;
8861;SDS011;4799;50.996;4.754;2023-06-22T12:20:11;87.17;;;65.37;;
8861;SDS011;4799;50.996;4.754;2023-06-22T12:22:37;81.67;;;62.80;;
8861;SDS011;4799;50.996;4.754;2023-06-22T12:25:03;72.30;;;60.23;;
8861;SDS011;4799;50.996;4.754;2023-06-22T12:27:29;76.60;;;61.53;;
8861;SDS011;4799;50.996;4.754;2023-06-22T12:29:57;78.13;;;63.10;;
8861;SDS011;4799;50.996;4.754;2023-06-22T12:32:23;82.70;;;64.47;;
8861;SDS011;4799;50.996;4.754;2023-06-22T12:34:49;86.67;;;65.87;;
8861;SDS011;4799;50.996;4.754;2023-06-22T12:37:15;87.10;;;66.67;;
8861;SDS011;4799;50.996;4.754;2023-06-22T12:39:41;80.17;;;63.33;;
8861;SDS011;4799;50.996;4.754;2023-06-22T12:42:07;88.53;;;68.43;;
8861;SDS011;4799;50.996;4.754;2023-06-22T12:44:43;99.80;;;72.60;;
8861;SDS011;4799;50.996;4.754;2023-06-22T12:47:08;95.50;;;71.23;;
8861;SDS011;4799;50.996;4.754;2023-06-22T12:49:35;97.50;;;73.37;;
8861;SDS011;4799;50.996;4.754;2023-06-22T12:52:01;102.43;;;73.93;;
8861;SDS011;4799;50.996;4.754;2023-06-22T12:54:27;102.57;;;75.13;;
8861;SDS011;4799;50.996;4.754;2023-06-22T12:56:54;98.93;;;74.90;;
8861;SDS011;4799;50.996;4.754;2023-06-22T12:59:20;98.00;;;73.47;;
8861;SDS011;4799;50.996;4.754;2023-06-22T13:01:46;106.97;;;77.67;;
8861;SDS011;4799;50.996;4.754;2023-06-22T13:04:12;121.10;;;81.07;;
8861;SDS011;4799;50.996;4.754;2023-06-22T13:06:42;129.43;;;83.37;;
8861;SDS011;4799;50.996;4.754;2023-06-22T13:09:09;107.27;;;79.00;;
8861;SDS011;4799;50.996;4.754;2023-06-22T13:11:35;110.13;;;81.23;;
8861;SDS011;4799;50.996;4.754;2023-06-22T13:14:01;121.53;;;85.50;;
8861;SDS011;4799;50.996;4.754;2023-06-22T13:16:27;127.60;;;86.07;;
8861;SDS011;4799;50.996;4.754;2023-06-22T13:18:52;118.57;;;84.83;;
8861;SDS011;4799;50.996;4.754;2023-06-22T13:21:18;130.37;;;89.03;;
8861;SDS011;4799;50.996;4.754;2023-06-22T13:23:44;135.20;;;89.33;;
8861;SDS011;4799;50.996;4.754;2023-06-22T13:26:09;131.17;;;90.93;;
8861;SDS011;4799;50.996;4.754;2023-06-22T13:28:35;122.47;;;86.37;;
8861;SDS011;4799;50.996;4.754;2023-06-22T13:31:01;135.57;;;90.37;;
8861;SDS011;4799;50.996;4.754;2023-06-22T13:33:27;130.77;;;89.23;;
8861;SDS011;4799;50.996;4.754;2023-06-22T13:35:52;113.63;;;84.93;;
8861;SDS011;4799;50.996;4.754;2023-06-22T13:38:18;122.47;;;85.97;;
8861;SDS011;4799;50.996;4.754;2023-06-22T13:40:44;115.10;;;82.80;;
8861;SDS011;4799;50.996;4.754;2023-06-22T13:43:10;113.70;;;82.23;;
8861;SDS011;4799;50.996;4.754;2023-06-22T13:45:35;111.13;;;80.13;;
8861;SDS011;4799;50.996;4.754;2023-06-22T13:48:01;106.73;;;78.67;;
8861;SDS011;4799;50.996;4.754;2023-06-22T13:50:27;95.00;;;72.70;;
8861;SDS011;4799;50.996;4.754;2023-06-22T13:52:54;104.20;;;78.70;;
8861;SDS011;4799;50.996;4.754;2023-06-22T13:55:20;103.03;;;76.93;;
8861;SDS011;4799;50.996;4.754;2023-06-22T13:57:46;107.47;;;78.10;;
8861;SDS011;4799;50.996;4.754;2023-06-22T14:00:12;113.33;;;79.67;;
8861;SDS011;4799;50.996;4.754;2023-06-22T14:02:38;108.30;;;74.90;;
8861;SDS011;4799;50.996;4.754;2023-06-22T14:05:05;114.70;;;78.57;;
8861;SDS011;4799;50.996;4.754;2023-06-22T14:07:31;113.60;;;82.47;;
8861;SDS011;4799;50.996;4.754;2023-06-22T14:09:57;104.43;;;79.50;;
8861;SDS011;4799;50.996;4.754;2023-06-22T14:12:23;114.30;;;79.47;;
8861;SDS011;4799;50.996;4.754;2023-06-22T14:14:49;104.53;;;79.90;;
8861;SDS011;4799;50.996;4.754;2023-06-22T14:17:15;113.63;;;80.60;;
8861;SDS011;4799;50.996;4.754;2023-06-22T14:19:40;111.30;;;79.60;;
8861;SDS011;4799;50.996;4.754;2023-06-22T14:22:06;113.63;;;80.97;;
8861;SDS011;4799;50.996;4.754;2023-06-22T14:24:32;126.03;;;86.13;;
8861;SDS011;4799;50.996;4.754;2023-06-22T14:26:58;120.27;;;83.33;;
8861;SDS011;4799;50.996;4.754;2023-06-22T14:29:24;109.90;;;79.97;;
8861;SDS011;4799;50.996;4.754;2023-06-22T14:31:50;111.83;;;82.10;;
8861;SDS011;4799;50.996;4.754;2023-06-22T14:34:16;102.90;;;78.87;;
8861;SDS011;4799;50.996;4.754;2023-06-22T14:36:42;118.70;;;83.03;;
8861;SDS011;4799;50.996;4.754;2023-06-22T14:39:08;112.97;;;79.80;;
8861;SDS011;4799;50.996;4.754;2023-06-22T14:41:34;98.93;;;73.90;;
8861;SDS011;4799;50.996;4.754;2023-06-22T14:44:00;106.53;;;78.63;;
8861;SDS011;4799;50.996;4.754;2023-06-22T14:46:26;90.90;;;69.67;;
8861;SDS011;4799;50.996;4.754;2023-06-22T14:48:52;92.70;;;70.73;;
8861;SDS011;4799;50.996;4.754;2023-06-22T14:51:18;98.13;;;73.50;;
8861;SDS011;4799;50.996;4.754;2023-06-22T14:53:44;100.67;;;70.37;;
8861;SDS011;4799;50.996;4.754;2023-06-22T14:56:10;94.60;;;70.60;;
8861;SDS011;4799;50.996;4.754;2023-06-22T14:58:37;87.50;;;66.77;;
8861;SDS011;4799;50.996;4.754;2023-06-22T15:01:05;95.57;;;70.83;;
8861;SDS011;4799;50.996;4.754;2023-06-22T15:03:34;97.10;;;71.73;;
8861;SDS011;4799;50.996;4.754;2023-06-22T15:06:01;95.30;;;69.10;;
8861;SDS011;4799;50.996;4.754;2023-06-22T15:08:27;90.63;;;68.27;;